Terminal Aerodrome Forecast
Issued by NWS

Home | Current Version | Previous Version | Text Only | Print | Product List | Glossary On
Versions: 1 2 3 4 5 6 7 8 9 10 11 12 13 14
000
FTUS43 KGRR 242349
TAFMKG
TAF
KMKG 242349Z 2500/2524 08009KT 6SM -RA OVC060
     FM250400 13010G18KT 5SM -DZ BR OVC050
     FM251000 17014G23KT 5SM BR OVC020
     FM251600 20018G28KT P6SM VCSH OVC030
     FM252000 21020G28KT P6SM VCSH BKN040=

USA.gov is the U.S. government's official web portal to all federal, state and local government web resources and services.